Time;durP1;ratioP1;P1;durP2;ratioP2;P2;SDS_P1;SDS_P2;PMS_P1;PMS_P2;Temp;Humidity;BMP_temperature;BMP_pressure;BME280_temperature;BME280_humidity;BME280_pressure;Samples;Min_cycle;Max_cycle;Signal;HPM_P1;HPM_P2
2024/02/11 00:01:55;;;;;;;8.10;7.25;;;9.10;99.90;;;;;;5095068;28;20032;-69
2024/02/11 00:04:21;;;;;;;14.90;9.10;;;9.10;99.90;;;;;;5095358;28;20024;-69
2024/02/11 00:06:46;;;;;;;12.65;9.07;;;9.10;99.90;;;;;;5095431;28;20025;-70
2024/02/11 00:09:12;;;;;;;12.85;9.10;;;9.20;99.90;;;;;;5095031;28;20107;-70
2024/02/11 00:11:38;;;;;;;11.73;9.57;;;9.20;99.90;;;;;;5095179;28;20028;-69
2024/02/11 00:14:04;;;;;;;12.27;9.88;;;9.20;99.90;;;;;;5095148;28;20020;-70
2024/02/11 00:16:30;;;;;;;12.05;10.00;;;9.20;99.90;;;;;;5095147;28;20036;-70
2024/02/11 00:18:56;;;;;;;11.88;9.60;;;9.20;99.90;;;;;;5095075;28;20035;-69
2024/02/11 00:21:23;;;;;;;13.07;9.82;;;9.20;99.90;;;;;;5094942;28;20078;-70
2024/02/11 00:23:49;;;;;;;12.52;9.30;;;9.20;99.90;;;;;;5095019;28;20024;-70
2024/02/11 00:26:16;;;;;;;12.43;9.80;;;9.20;99.90;;;;;;5095016;28;20020;-70
2024/02/11 00:28:42;;;;;;;10.93;8.45;;;9.20;99.90;;;;;;5094787;28;20482;-70
2024/02/11 00:31:08;;;;;;;12.85;9.68;;;9.20;99.90;;;;;;5094789;28;20025;-70
2024/02/11 00:33:33;;;;;;;11.00;8.38;;;9.20;99.90;;;;;;5094533;28;20067;-70
2024/02/11 00:36:00;;;;;;;11.88;9.13;;;9.20;99.90;;;;;;5094940;28;20026;-69
2024/02/11 00:38:26;;;;;;;12.85;8.77;;;9.20;99.90;;;;;;5094749;28;20025;-70
2024/02/11 00:40:52;;;;;;;10.52;8.35;;;9.20;99.90;;;;;;5093414;28;20025;-70
2024/02/11 00:43:18;;;;;;;16.58;8.55;;;9.10;99.90;;;;;;5094835;28;20020;-69
2024/02/11 00:45:44;;;;;;;10.48;7.90;;;9.10;99.90;;;;;;5093372;28;20024;-69
2024/02/11 00:48:10;;;;;;;12.65;8.43;;;9.10;99.90;;;;;;5094676;28;20074;-70
2024/02/11 00:50:36;;;;;;;13.90;8.50;;;9.10;99.90;;;;;;5094434;28;20028;-69
2024/02/11 00:53:04;;;;;;;10.80;8.02;;;9.20;99.90;;;;;;5094553;28;20543;-70
2024/02/11 00:55:31;;;;;;;12.05;8.18;;;9.20;99.90;;;;;;5094546;28;20028;-70
2024/02/11 00:57:56;;;;;;;10.75;8.57;;;9.10;99.90;;;;;;5094350;28;20538;-70
2024/02/11 01:00:22;;;;;;;12.52;9.07;;;9.10;99.90;;;;;;5094154;28;20136;-69
2024/02/11 01:02:48;;;;;;;9.93;8.70;;;9.00;99.90;;;;;;5094344;28;20024;-70
2024/02/11 01:05:14;;;;;;;10.85;8.25;;;9.00;99.90;;;;;;5094064;28;20085;-70
2024/02/11 01:07:40;;;;;;;8.75;7.22;;;9.00;99.90;;;;;;5094097;28;20020;-70
2024/02/11 01:10:12;;;;;;;10.48;7.65;;;9.00;99.90;;;;;;5093959;28;20039;-69
2024/02/11 01:12:39;;;;;;;8.98;7.80;;;8.90;99.90;;;;;;5092858;28;20028;-69
2024/02/11 01:15:07;;;;;;;10.63;7.40;;;8.90;99.90;;;;;;5094027;28;20032;-69
2024/02/11 01:17:32;;;;;;;11.00;8.48;;;8.90;99.90;;;;;;5094087;28;20031;-71
2024/02/11 01:19:58;;;;;;;13.00;10.48;;;8.90;99.90;;;;;;5093757;28;20385;-70
2024/02/11 01:22:23;;;;;;;15.57;11.07;;;8.90;99.90;;;;;;5094078;28;20028;-69
2024/02/11 01:24:49;;;;;;;15.50;11.75;;;8.90;99.90;;;;;;5093905;28;20020;-69
2024/02/11 01:27:15;;;;;;;15.55;12.07;;;8.90;99.90;;;;;;5094076;28;20030;-69
2024/02/11 01:29:41;;;;;;;17.35;11.98;;;9.00;99.90;;;;;;5093767;28;20485;-69
2024/02/11 01:32:09;;;;;;;16.08;11.88;;;9.00;99.90;;;;;;5093626;28;20021;-69
2024/02/11 01:34:34;;;;;;;14.68;11.25;;;9.00;99.90;;;;;;5093498;28;20024;-69
2024/02/11 01:37:00;;;;;;;15.63;11.98;;;9.00;99.90;;;;;;5093669;28;20039;-69
2024/02/11 01:39:26;;;;;;;16.98;11.55;;;9.00;99.90;;;;;;5093681;28;20016;-69
2024/02/11 01:41:52;;;;;;;14.40;11.32;;;9.10;99.90;;;;;;5093578;28;20030;-69
2024/02/11 01:44:18;;;;;;;15.88;11.07;;;9.10;99.90;;;;;;5093842;28;20028;-71
2024/02/11 01:46:45;;;;;;;14.43;11.00;;;9.10;99.90;;;;;;5093472;28;20477;-69
2024/02/11 01:49:11;;;;;;;12.90;10.18;;;9.10;99.90;;;;;;5093448;28;20473;-71
2024/02/11 01:51:42;;;;;;;13.45;10.13;;;9.00;99.90;;;;;;5093432;28;20024;-69
2024/02/11 01:54:09;;;;;;;11.98;9.32;;;9.00;99.90;;;;;;5093422;28;20481;-69
2024/02/11 01:56:36;;;;;;;12.07;9.13;;;9.10;99.90;;;;;;5092981;28;20024;-69
2024/02/11 01:59:03;;;;;;;11.88;9.13;;;9.10;99.90;;;;;;5093395;28;20060;-70
2024/02/11 02:01:31;;;;;;;13.10;9.10;;;9.10;99.90;;;;;;5092962;28;20403;-70
2024/02/11 02:03:58;;;;;;;13.05;9.10;;;9.00;99.90;;;;;;5093371;28;20427;-70
2024/02/11 02:06:24;;;;;;;13.77;8.82;;;9.00;99.90;;;;;;5093331;28;20452;-70
2024/02/11 02:08:50;;;;;;;12.65;9.13;;;9.00;99.90;;;;;;5093398;28;20017;-70
2024/02/11 02:11:16;;;;;;;11.60;9.15;;;8.90;99.90;;;;;;5093411;28;20028;-70
2024/02/11 02:13:42;;;;;;;10.00;7.93;;;9.00;99.90;;;;;;5093416;28;20032;-70
2024/02/11 02:16:08;;;;;;;10.77;9.32;;;9.00;99.90;;;;;;5093142;28;20028;-70
2024/02/11 02:18:34;;;;;;;12.52;9.45;;;9.00;99.90;;;;;;5093167;28;20032;-69
2024/02/11 02:21:04;;;;;;;11.10;9.30;;;9.00;99.90;;;;;;5093122;28;20035;-70
2024/02/11 02:23:30;;;;;;;10.30;8.45;;;9.00;99.90;;;;;;5092936;28;20102;-71
2024/02/11 02:25:57;;;;;;;15.00;11.50;;;9.00;99.90;;;;;;5093319;28;20112;-69
2024/02/11 02:28:23;;;;;;;15.95;11.90;;;9.00;99.90;;;;;;5093353;28;20487;-69
2024/02/11 02:30:49;;;;;;;14.68;10.15;;;9.00;99.90;;;;;;5093161;28;20031;-69
2024/02/11 02:33:14;;;;;;;11.63;9.18;;;9.00;99.90;;;;;;5092998;28;20406;-69
2024/02/11 02:35:40;;;;;;;12.75;9.63;;;9.00;99.90;;;;;;5092757;28;20024;-70
2024/02/11 02:38:05;;;;;;;11.80;9.27;;;8.90;99.90;;;;;;5092997;28;20040;-69
2024/02/11 02:40:32;;;;;;;11.50;8.57;;;8.90;99.90;;;;;;5093076;28;20028;-69
2024/02/11 02:42:58;;;;;;;12.43;8.98;;;8.90;99.90;;;;;;5093048;28;20141;-70
2024/02/11 02:45:23;;;;;;;11.43;9.50;;;8.90;99.90;;;;;;5092917;28;20052;-69
2024/02/11 02:47:49;;;;;;;15.13;11.00;;;8.90;99.90;;;;;;5093194;28;20024;-69
2024/02/11 02:50:15;;;;;;;16.95;10.38;;;8.90;99.90;;;;;;5093015;28;20432;-70
2024/02/11 02:52:43;;;;;;;12.20;10.00;;;8.90;99.90;;;;;;5092901;28;20043;-69
2024/02/11 02:55:09;;;;;;;13.55;9.85;;;8.80;99.90;;;;;;5093036;28;20035;-69
2024/02/11 02:57:35;;;;;;;12.85;9.45;;;8.80;99.90;;;;;;5092929;28;20035;-70
2024/02/11 03:00:03;;;;;;;12.77;9.77;;;8.80;99.90;;;;;;5092546;28;20055;-69
2024/02/11 03:02:28;;;;;;;16.65;11.65;;;8.80;99.90;;;;;;5092623;28;20024;-70
2024/02/11 03:04:55;;;;;;;15.73;10.90;;;8.80;99.90;;;;;;5092978;28;20076;-69
2024/02/11 03:07:20;;;;;;;15.02;11.25;;;8.80;99.90;;;;;;5093253;28;20466;-69
2024/02/11 03:09:46;;;;;;;16.58;12.15;;;8.80;99.90;;;;;;5096492;28;20025;-69
2024/02/11 03:12:11;;;;;;;17.50;12.95;;;8.90;99.90;;;;;;5096343;28;20028;-70
2024/02/11 03:14:37;;;;;;;18.23;13.07;;;8.90;99.90;;;;;;5096327;28;20028;-69
2024/02/11 03:17:03;;;;;;;18.08;12.93;;;8.90;99.90;;;;;;5095078;28;20024;-69
2024/02/11 03:19:29;;;;;;;18.98;12.95;;;8.90;99.90;;;;;;5096317;28;20430;-69
2024/02/11 03:21:54;;;;;;;22.30;15.02;;;9.00;99.90;;;;;;5095944;28;20113;-69
2024/02/11 03:24:20;;;;;;;22.25;14.75;;;9.00;99.90;;;;;;5096293;28;20433;-69
2024/02/11 03:26:46;;;;;;;22.02;14.63;;;9.00;99.90;;;;;;5096283;28;20389;-69
2024/02/11 03:29:11;;;;;;;20.67;14.10;;;9.00;99.90;;;;;;5096034;28;20069;-69
2024/02/11 03:31:37;;;;;;;20.92;15.38;;;9.00;99.90;;;;;;5095755;28;20028;-69
2024/02/11 03:34:05;;;;;;;19.10;13.65;;;9.00;99.90;;;;;;5096172;28;20027;-69
2024/02/11 03:36:32;;;;;;;20.98;14.05;;;9.00;99.90;;;;;;5096166;28;20397;-69
2024/02/11 03:38:58;;;;;;;21.65;14.52;;;9.00;99.90;;;;;;5095909;28;20024;-69
2024/02/11 03:41:24;;;;;;;20.23;14.43;;;9.00;99.90;;;;;;5095807;28;20038;-70
2024/02/11 03:43:49;;;;;;;19.27;14.23;;;9.00;99.90;;;;;;5096056;28;20048;-69
2024/02/11 03:46:15;;;;;;;20.10;13.30;;;9.00;99.90;;;;;;5095663;28;20027;-69
2024/02/11 03:48:41;;;;;;;22.85;15.80;;;9.00;99.90;;;;;;5095898;28;20431;-69
2024/02/11 03:51:07;;;;;;;23.83;13.98;;;9.00;99.90;;;;;;5095679;28;20032;-69
2024/02/11 03:53:34;;;;;;;25.75;16.63;;;8.90;99.90;;;;;;5095327;28;20039;-70
2024/02/11 03:56:05;;;;;;;22.77;14.73;;;8.90;99.90;;;;;;5095545;28;20024;-69
2024/02/11 03:58:33;;;;;;;21.08;15.25;;;8.90;99.90;;;;;;5095495;28;20043;-69
2024/02/11 04:00:58;;;;;;;23.02;15.20;;;8.90;99.90;;;;;;5095194;28;20047;-69
2024/02/11 04:03:25;;;;;;;22.77;15.00;;;8.90;99.90;;;;;;5095617;28;20390;-69
2024/02/11 04:05:55;;;;;;;19.60;14.10;;;8.90;99.90;;;;;;5095552;28;20073;-69
2024/02/11 04:08:21;;;;;;;19.55;13.95;;;8.90;99.90;;;;;;5095375;28;20030;-69
2024/02/11 04:10:52;;;;;;;23.27;14.25;;;8.80;99.90;;;;;;5095316;28;20020;-70
2024/02/11 04:13:26;;;;;;;19.83;14.95;;;8.80;99.90;;;;;;5095177;28;20429;-71
2024/02/11 04:15:56;;;;;;;20.90;14.73;;;8.80;99.90;;;;;;5095189;28;20085;-69
2024/02/11 04:18:23;;;;;;;22.73;15.27;;;8.80;99.90;;;;;;5095165;28;20031;-69
2024/02/11 04:20:49;;;;;;;25.27;15.75;;;8.80;99.90;;;;;;5095172;28;20050;-70
2024/02/11 04:23:16;;;;;;;20.92;14.90;;;8.70;99.90;;;;;;5094982;28;20390;-69
2024/02/11 04:25:45;;;;;;;19.73;14.23;;;8.70;99.90;;;;;;5094906;28;20126;-69
2024/02/11 04:28:11;;;;;;;23.50;14.70;;;8.70;99.90;;;;;;5094987;28;20031;-69
2024/02/11 04:30:38;;;;;;;17.65;13.52;;;8.60;99.90;;;;;;5094820;28;20028;-69
2024/02/11 04:33:04;;;;;;;23.65;15.20;;;8.50;99.90;;;;;;5093798;28;20042;-69
2024/02/11 04:35:30;;;;;;;23.58;15.02;;;8.50;99.90;;;;;;5094709;28;20022;-69
2024/02/11 04:37:56;;;;;;;20.83;15.30;;;8.50;99.90;;;;;;5094821;28;20073;-69
2024/02/11 04:40:24;;;;;;;25.60;15.75;;;8.50;99.90;;;;;;5094670;28;20028;-69
2024/02/11 04:42:52;;;;;;;20.58;14.85;;;8.60;99.90;;;;;;5094778;28;20557;-69
2024/02/11 04:45:19;;;;;;;20.85;15.20;;;8.50;99.90;;;;;;5093685;28;20082;-69
2024/02/11 04:47:49;;;;;;;19.60;13.77;;;8.50;99.90;;;;;;5094709;28;20042;-69
2024/02/11 04:50:16;;;;;;;23.50;15.90;;;8.40;99.90;;;;;;5094661;28;20083;-69
2024/02/11 04:52:48;;;;;;;19.23;13.82;;;8.40;99.90;;;;;;5094159;28;20024;-69
2024/02/11 04:55:14;;;;;;;22.00;14.43;;;8.40;99.90;;;;;;5094108;28;20078;-69
2024/02/11 04:57:40;;;;;;;19.23;13.88;;;8.30;99.90;;;;;;5094592;28;20493;-69
2024/02/11 05:00:18;;;;;;;21.38;13.15;;;8.20;99.90;;;;;;5094268;28;20088;-69
2024/02/11 05:02:44;;;;;;;17.25;12.65;;;8.20;99.90;;;;;;5094500;28;20194;-69
2024/02/11 05:05:11;;;;;;;20.77;13.73;;;8.10;99.90;;;;;;5094367;28;20020;-69
2024/02/11 05:07:43;;;;;;;18.55;13.38;;;8.10;99.90;;;;;;5094371;28;20051;-70
2024/02/11 05:10:11;;;;;;;24.33;15.35;;;8.10;99.90;;;;;;5094307;28;20530;-69
2024/02/11 05:12:37;;;;;;;20.58;14.60;;;8.20;99.90;;;;;;5094181;28;20062;-69
2024/02/11 05:15:04;;;;;;;21.73;14.93;;;8.20;99.90;;;;;;5093800;28;20524;-69
2024/02/11 05:17:30;;;;;;;22.33;15.30;;;8.20;99.90;;;;;;5094083;28;20500;-69
2024/02/11 05:19:55;;;;;;;20.70;15.02;;;8.30;99.90;;;;;;5093776;28;20032;-69
2024/02/11 05:22:25;;;;;;;19.75;14.80;;;8.30;99.90;;;;;;5094197;28;20020;-69
2024/02/11 05:24:52;;;;;;;20.77;14.65;;;8.30;99.90;;;;;;5093817;28;20035;-69
2024/02/11 05:27:18;;;;;;;25.48;16.73;;;8.30;99.90;;;;;;5094094;28;20524;-69
2024/02/11 05:29:44;;;;;;;20.20;14.52;;;8.30;99.90;;;;;;5093753;28;20085;-69
2024/02/11 05:32:14;;;;;;;22.50;15.48;;;8.30;99.90;;;;;;5093628;28;20032;-69
2024/02/11 05:34:41;;;;;;;20.27;14.52;;;8.20;99.90;;;;;;5093548;28;20024;-69
2024/02/11 05:37:07;;;;;;;19.42;13.93;;;8.20;99.90;;;;;;5093671;28;20034;-69
2024/02/11 05:39:37;;;;;;;19.50;14.30;;;8.20;99.90;;;;;;5093700;28;20024;-69
2024/02/11 05:42:09;;;;;;;21.63;15.30;;;8.10;99.90;;;;;;5093578;28;20020;-69
2024/02/11 05:44:35;;;;;;;25.40;15.73;;;8.10;99.90;;;;;;5093796;28;20035;-70
2024/02/11 05:47:01;;;;;;;24.83;16.15;;;8.20;99.90;;;;;;5093723;28;20040;-69
2024/02/11 05:49:26;;;;;;;24.23;15.95;;;8.30;99.90;;;;;;5093537;28;20031;-69
2024/02/11 05:51:52;;;;;;;22.15;16.05;;;8.30;99.90;;;;;;5093604;28;20474;-70
2024/02/11 05:54:18;;;;;;;24.90;16.00;;;8.40;99.90;;;;;;5093197;28;20024;-70
2024/02/11 05:56:49;;;;;;;26.05;16.60;;;8.40;99.90;;;;;;5093580;28;20028;-69
2024/02/11 05:59:14;;;;;;;20.95;15.38;;;8.40;99.90;;;;;;5093217;28;20024;-68
2024/02/11 06:01:40;;;;;;;21.58;14.70;;;8.40;99.90;;;;;;5093187;28;20509;-69
2024/02/11 06:04:06;;;;;;;18.77;13.18;;;8.40;99.90;;;;;;5093383;28;20020;-69
2024/02/11 06:06:31;;;;;;;20.40;14.27;;;8.40;99.90;;;;;;5093391;28;20051;-69
2024/02/11 06:08:57;;;;;;;17.30;12.70;;;8.40;99.90;;;;;;5093607;28;20020;-69
2024/02/11 06:11:25;;;;;;;17.17;12.60;;;8.40;99.90;;;;;;5093549;28;20085;-70
2024/02/11 06:13:51;;;;;;;18.13;12.85;;;8.40;99.90;;;;;;5093384;28;20062;-69
2024/02/11 06:16:17;;;;;;;19.65;14.15;;;8.30;99.90;;;;;;5093199;28;20024;-70
2024/02/11 06:18:43;;;;;;;20.23;14.77;;;8.30;99.90;;;;;;5093179;28;20505;-69
2024/02/11 06:21:10;;;;;;;18.65;13.73;;;8.30;99.90;;;;;;5093033;28;20111;-69
2024/02/11 06:23:36;;;;;;;16.60;12.48;;;8.30;99.90;;;;;;5093236;28;20474;-69
2024/02/11 06:26:02;;;;;;;18.63;12.77;;;8.20;99.90;;;;;;5093239;28;20020;-69
2024/02/11 06:28:29;;;;;;;18.55;11.93;;;8.20;99.90;;;;;;5093165;28;20024;-69
2024/02/11 06:30:54;;;;;;;16.27;11.90;;;8.20;99.90;;;;;;5092959;28;20050;-69
2024/02/11 06:33:20;;;;;;;18.42;12.77;;;8.20;99.90;;;;;;5093078;28;20028;-69
2024/02/11 06:35:46;;;;;;;15.25;11.82;;;8.20;99.90;;;;;;5093228;28;20036;-69
2024/02/11 06:38:12;;;;;;;17.42;12.52;;;8.30;99.90;;;;;;5093070;28;20024;-70
2024/02/11 06:40:40;;;;;;;18.13;13.00;;;8.20;99.90;;;;;;5092955;28;20035;-69
2024/02/11 06:43:11;;;;;;;19.80;13.07;;;8.20;99.90;;;;;;5094563;28;20387;-69
2024/02/11 06:45:40;;;;;;;16.60;12.68;;;8.30;99.90;;;;;;5096895;28;20501;-69
2024/02/11 06:48:08;;;;;;;18.80;12.80;;;8.20;99.90;;;;;;5096925;28;20024;-70
2024/02/11 06:50:34;;;;;;;19.55;13.27;;;8.20;99.90;;;;;;5096908;28;20038;-69
2024/02/11 06:53:00;;;;;;;19.05;12.43;;;8.20;99.90;;;;;;5097033;28;20497;-69
2024/02/11 06:55:25;;;;;;;18.65;12.68;;;8.30;99.90;;;;;;5096807;28;20111;-69
2024/02/11 06:57:51;;;;;;;15.60;12.73;;;8.20;99.90;;;;;;5096948;28;20040;-69
2024/02/11 07:00:18;;;;;;;21.00;14.88;;;8.30;99.90;;;;;;5096425;28;20044;-69
2024/02/11 07:02:47;;;;;;;16.75;12.68;;;8.30;99.90;;;;;;5096773;28;20024;-69
2024/02/11 07:05:15;;;;;;;16.38;12.13;;;8.40;99.90;;;;;;5096715;28;20020;-69
2024/02/11 07:07:42;;;;;;;15.60;11.50;;;8.40;99.90;;;;;;5096707;28;20440;-69
2024/02/11 07:10:08;;;;;;;17.10;11.95;;;8.50;99.90;;;;;;5096460;28;20022;-69
2024/02/11 07:12:34;;;;;;;17.00;11.70;;;8.50;99.90;;;;;;5096428;28;20536;-69
2024/02/11 07:15:00;;;;;;;19.08;13.02;;;8.50;99.90;;;;;;5096393;28;20032;-69
2024/02/11 07:17:30;;;;;;;20.58;14.10;;;8.60;99.90;;;;;;5096408;28;20126;-69
2024/02/11 07:19:56;;;;;;;26.05;15.93;;;8.70;99.90;;;;;;5096188;28;20182;-69
2024/02/11 07:22:21;;;;;;;23.60;15.55;;;8.80;99.90;;;;;;5096168;28;20107;-69
2024/02/11 07:24:47;;;;;;;23.40;15.25;;;9.00;99.90;;;;;;5095993;28;20428;-69
2024/02/11 07:27:14;;;;;;;21.58;15.95;;;9.10;99.90;;;;;;5096092;28;20078;-70
2024/02/11 07:29:41;;;;;;;24.33;15.88;;;9.20;99.90;;;;;;5096070;28;20034;-69
2024/02/11 07:32:06;;;;;;;21.50;14.02;;;9.30;99.90;;;;;;5096165;28;20024;-69
2024/02/11 07:34:32;;;;;;;19.13;13.23;;;9.50;99.90;;;;;;5096190;28;20073;-69
2024/02/11 07:37:02;;;;;;;21.45;13.85;;;9.60;99.90;;;;;;5096030;28;20389;-69
2024/02/11 07:39:29;;;;;;;16.48;11.90;;;9.70;99.90;;;;;;5096179;28;20509;-69
2024/02/11 07:41:55;;;;;;;19.50;11.95;;;9.80;99.90;;;;;;5095693;28;20030;-69
2024/02/11 07:44:21;;;;;;;17.00;10.93;;;9.90;99.90;;;;;;5095928;28;20393;-69
2024/02/11 07:46:47;;;;;;;16.95;10.77;;;9.90;99.90;;;;;;5095745;28;20020;-69
2024/02/11 07:49:13;;;;;;;15.95;10.77;;;10.00;99.90;;;;;;5095710;28;20030;-69
2024/02/11 07:51:44;;;;;;;17.38;10.65;;;10.10;99.90;;;;;;5095842;28;20031;-69
2024/02/11 07:54:11;;;;;;;15.63;10.30;;;10.10;99.90;;;;;;5095262;28;20035;-69
2024/02/11 07:56:38;;;;;;;16.15;9.85;;;10.10;99.90;;;;;;5095396;28;20028;-69
2024/02/11 07:59:04;;;;;;;15.23;9.77;;;10.20;99.90;;;;;;5095669;28;20065;-69
2024/02/11 08:01:33;;;;;;;12.38;8.98;;;10.30;99.90;;;;;;5095215;28;20050;-69
2024/02/11 08:03:59;;;;;;;13.32;8.73;;;10.40;99.90;;;;;;5095407;28;20103;-68
2024/02/11 08:06:25;;;;;;;10.23;7.63;;;10.30;99.90;;;;;;5095371;28;20024;-69
2024/02/11 08:08:51;;;;;;;12.20;7.00;;;10.40;99.90;;;;;;5095304;28;20043;-69
2024/02/11 08:11:18;;;;;;;8.65;6.60;;;10.40;99.90;;;;;;5095415;28;20028;-69
2024/02/11 08:13:43;;;;;;;6.93;5.38;;;10.30;99.90;;;;;;5095372;28;20031;-69
2024/02/11 08:16:11;;;;;;;7.00;4.88;;;10.30;99.90;;;;;;5095189;28;20027;-69
2024/02/11 08:18:38;;;;;;;5.70;4.60;;;10.20;99.90;;;;;;5095270;28;20024;-69
2024/02/11 08:21:04;;;;;;;4.68;3.85;;;10.20;99.90;;;;;;5094963;28;20024;-69
2024/02/11 08:23:32;;;;;;;4.20;3.80;;;9.90;99.90;;;;;;5095204;28;20028;-69
2024/02/11 08:25:58;;;;;;;6.28;4.32;;;9.70;99.90;;;;;;5095116;28;20024;-68
2024/02/11 08:28:23;;;;;;;7.30;5.45;;;9.60;99.90;;;;;;5095136;28;20427;-70
2024/02/11 08:30:49;;;;;;;7.88;5.43;;;9.50;99.90;;;;;;5095071;28;20039;-69
2024/02/11 08:33:15;;;;;;;6.78;5.43;;;9.40;99.90;;;;;;5094784;28;20032;-70
2024/02/11 08:35:41;;;;;;;8.30;5.63;;;9.30;99.90;;;;;;5095004;28;20111;-70
2024/02/11 08:38:07;;;;;;;8.95;5.72;;;9.30;99.90;;;;;;5094911;28;20031;-69
2024/02/11 08:40:32;;;;;;;10.52;5.70;;;9.20;99.90;;;;;;5094777;28;20053;-69
2024/02/11 08:42:58;;;;;;;6.50;5.70;;;9.10;99.90;;;;;;5095003;28;20024;-69
2024/02/11 08:45:24;;;;;;;10.45;6.38;;;9.20;99.90;;;;;;5094895;28;20028;-70
2024/02/11 08:47:50;;;;;;;9.75;6.72;;;9.10;99.90;;;;;;5094531;28;20028;-69
2024/02/11 08:50:16;;;;;;;10.38;6.57;;;9.10;99.90;;;;;;5094502;28;20074;-69
2024/02/11 08:52:43;;;;;;;9.90;6.32;;;9.10;99.90;;;;;;5094431;28;20068;-69
2024/02/11 08:55:10;;;;;;;11.57;7.28;;;9.00;99.90;;;;;;5094610;28;20076;-69
2024/02/11 08:57:36;;;;;;;14.63;7.50;;;9.00;99.90;;;;;;5094360;28;20020;-69
2024/02/11 09:00:02;;;;;;;12.80;7.78;;;9.00;99.90;;;;;;5094113;28;20104;-69
2024/02/11 09:02:28;;;;;;;13.02;7.68;;;9.00;99.90;;;;;;5094571;28;20489;-69
2024/02/11 09:04:54;;;;;;;12.88;7.35;;;9.00;99.90;;;;;;5093935;28;20026;-69
2024/02/11 09:07:22;;;;;;;13.52;7.55;;;9.00;99.90;;;;;;5094008;28;20482;-69
2024/02/11 09:09:49;;;;;;;14.13;7.50;;;9.00;99.90;;;;;;5094144;28;20020;-69
2024/02/11 09:12:14;;;;;;;11.75;7.03;;;8.90;99.90;;;;;;5094322;28;20478;-70
2024/02/11 09:14:41;;;;;;;14.95;6.55;;;9.00;99.90;;;;;;5094245;28;20039;-69
2024/02/11 09:17:07;;;;;;;11.88;5.78;;;8.90;99.90;;;;;;5093834;28;20480;-70
2024/02/11 09:19:33;;;;;;;14.00;5.72;;;8.90;99.90;;;;;;5094209;28;20107;-69
2024/02/11 09:21:59;;;;;;;12.05;4.80;;;8.90;99.90;;;;;;5093878;28;20116;-69
2024/02/11 09:24:25;;;;;;;16.83;5.07;;;8.80;99.90;;;;;;5094110;28;20090;-70
2024/02/11 09:26:51;;;;;;;14.07;5.00;;;8.80;99.90;;;;;;5093857;28;20032;-69
2024/02/11 09:29:17;;;;;;;16.75;5.65;;;8.80;99.90;;;;;;5093796;28;20027;-70
2024/02/11 09:31:44;;;;;;;13.05;4.45;;;8.80;99.90;;;;;;5093831;28;20505;-69
2024/02/11 09:34:10;;;;;;;11.50;4.78;;;8.80;99.90;;;;;;5093748;28;20028;-70
2024/02/11 09:36:38;;;;;;;11.35;4.25;;;8.80;99.90;;;;;;5093762;28;20024;-69
2024/02/11 09:39:04;;;;;;;14.20;5.50;;;8.70;99.90;;;;;;5093834;28;20077;-69
2024/02/11 09:41:30;;;;;;;14.02;5.25;;;8.70;99.90;;;;;;5093542;28;20055;-69
2024/02/11 09:44:02;;;;;;;15.50;5.15;;;8.70;99.90;;;;;;5093765;28;20073;-70
2024/02/11 09:46:29;;;;;;;19.70;5.30;;;8.70;99.90;;;;;;5093658;28;20035;-70
2024/02/11 09:48:57;;;;;;;14.50;5.45;;;8.70;99.90;;;;;;5093375;28;20031;-69
2024/02/11 09:51:26;;;;;;;22.27;6.68;;;8.70;99.90;;;;;;5093742;28;20028;-69
2024/02/11 09:53:54;;;;;;;17.85;6.45;;;8.70;99.90;;;;;;5093684;28;20375;-69
2024/02/11 09:56:20;;;;;;;14.40;6.22;;;8.70;99.90;;;;;;5093418;28;20027;-69
2024/02/11 09:58:46;;;;;;;20.65;6.75;;;8.70;99.90;;;;;;5093453;28;20497;-70
2024/02/11 10:01:13;;;;;;;15.65;6.10;;;8.70;99.90;;;;;;5093150;28;20055;-70
2024/02/11 10:03:40;;;;;;;15.93;6.63;;;8.80;99.90;;;;;;5093629;28;20024;-70
2024/02/11 10:06:11;;;;;;;20.52;6.78;;;8.80;99.90;;;;;;5093335;28;20062;-70
2024/02/11 10:08:36;;;;;;;15.60;6.45;;;8.80;99.90;;;;;;5093328;28;20393;-69
2024/02/11 10:11:07;;;;;;;19.05;6.57;;;8.80;99.90;;;;;;5093469;28;20028;-70
2024/02/11 10:13:35;;;;;;;19.50;7.03;;;8.80;99.90;;;;;;5093267;28;20035;-69
2024/02/11 10:16:05;;;;;;;16.58;6.60;;;8.80;99.90;;;;;;5093306;28;20086;-69
2024/02/11 10:18:33;;;;;;;18.98;7.68;;;8.80;99.90;;;;;;5097274;28;20027;-69
2024/02/11 10:20:58;;;;;;;21.25;7.22;;;8.80;99.90;;;;;;5097231;28;20032;-69
2024/02/11 10:23:24;;;;;;;20.27;6.78;;;8.80;99.90;;;;;;5097573;28;20073;-69
2024/02/11 10:25:50;;;;;;;16.10;8.23;;;8.80;99.90;;;;;;5097472;28;20431;-69
2024/02/11 10:28:18;;;;;;;21.23;7.40;;;8.90;99.90;;;;;;5097226;28;20021;-69
2024/02/11 10:30:43;;;;;;;20.38;6.47;;;8.80;99.90;;;;;;5097197;28;20442;-69
2024/02/11 10:33:10;;;;;;;17.65;7.15;;;8.80;99.90;;;;;;5097458;28;20115;-69
2024/02/11 10:35:36;;;;;;;16.60;7.35;;;8.90;99.90;;;;;;5097346;28;20024;-69
2024/02/11 10:38:06;;;;;;;17.83;7.22;;;8.90;99.90;;;;;;5097150;28;20032;-69
2024/02/11 10:40:35;;;;;;;22.30;7.70;;;8.90;99.90;;;;;;5097106;28;20485;-70
2024/02/11 10:43:03;;;;;;;16.00;6.75;;;8.90;99.90;;;;;;5096865;28;20078;-69
2024/02/11 10:45:29;;;;;;;16.65;6.25;;;9.00;99.90;;;;;;5096819;28;20016;-69
2024/02/11 10:47:54;;;;;;;21.95;7.03;;;8.90;99.90;;;;;;5097287;28;20039;-69
2024/02/11 10:50:21;;;;;;;19.75;7.25;;;9.00;99.90;;;;;;5096830;28;20024;-69
2024/02/11 10:52:49;;;;;;;17.70;7.35;;;8.90;99.90;;;;;;5096820;28;20028;-69
2024/02/11 10:55:16;;;;;;;18.95;7.28;;;9.00;99.90;;;;;;5096680;28;20032;-69
2024/02/11 10:57:50;;;;;;;18.40;6.97;;;9.00;99.90;;;;;;5096451;28;20023;-69
2024/02/11 11:00:20;;;;;;;16.92;7.18;;;8.90;99.90;;;;;;5096464;28;20641;-69
2024/02/11 11:02:49;;;;;;;19.67;7.45;;;8.90;99.90;;;;;;5096645;28;20098;-69
2024/02/11 11:05:17;;;;;;;20.83;8.27;;;8.80;99.90;;;;;;5096534;28;20104;-69
2024/02/11 11:07:48;;;;;;;14.70;8.18;;;8.80;99.90;;;;;;5096537;28;20048;-69
2024/02/11 11:10:14;;;;;;;16.80;7.95;;;8.80;99.90;;;;;;5096402;28;20520;-69
2024/02/11 11:12:50;;;;;;;18.40;8.18;;;8.90;99.90;;;;;;5096637;28;20020;-69
2024/02/11 11:15:24;;;;;;;17.52;9.18;;;8.90;99.90;;;;;;5096361;28;20062;-69
2024/02/11 11:17:50;;;;;;;19.75;9.48;;;8.90;99.90;;;;;;5096281;28;20024;-69
2024/02/11 11:20:18;;;;;;;22.73;8.98;;;9.00;99.90;;;;;;5096232;28;20078;-69
2024/02/11 11:22:53;;;;;;;21.48;9.10;;;9.00;99.90;;;;;;5095966;28;20031;-69
2024/02/11 11:25:21;;;;;;;21.25;8.95;;;9.00;99.90;;;;;;5096166;28;20035;-70
2024/02/11 11:27:48;;;;;;;20.98;9.07;;;9.10;99.90;;;;;;5095822;28;20028;-69
2024/02/11 11:30:14;;;;;;;21.67;8.20;;;9.10;99.90;;;;;;5095780;28;20024;-69
2024/02/11 11:32:46;;;;;;;19.23;8.07;;;9.10;99.90;;;;;;5096227;28;20016;-69
2024/02/11 11:35:13;;;;;;;21.42;8.18;;;9.00;99.90;;;;;;5094806;28;20024;-70
2024/02/11 11:37:39;;;;;;;18.50;9.35;;;9.00;99.90;;;;;;5095923;28;20026;-69
2024/02/11 11:40:07;;;;;;;23.35;9.85;;;9.00;99.90;;;;;;5095892;28;20385;-69
2024/02/11 11:42:34;;;;;;;23.25;9.20;;;9.00;99.90;;;;;;5095780;28;20036;-69
2024/02/11 11:45:07;;;;;;;22.25;9.23;;;9.10;99.90;;;;;;5095892;28;20020;-70
2024/02/11 11:47:34;;;;;;;32.42;10.38;;;9.20;99.90;;;;;;5096015;28;20020;-69
2024/02/11 11:50:00;;;;;;;15.77;8.48;;;9.30;99.90;;;;;;5095924;28;20077;-68
2024/02/11 11:52:26;;;;;;;20.83;8.82;;;9.30;99.90;;;;;;5095877;28;20036;-69
2024/02/11 11:54:52;;;;;;;17.08;8.10;;;9.30;99.90;;;;;;5095667;28;20020;-69
2024/02/11 11:57:18;;;;;;;20.00;9.35;;;9.40;99.90;;;;;;5095509;28;20024;-70
2024/02/11 11:59:54;;;;;;;17.40;8.60;;;9.50;99.90;;;;;;5095219;28;20163;-69
2024/02/11 12:02:20;;;;;;;18.98;9.20;;;9.50;99.90;;;;;;5095390;28;20375;-69
2024/02/11 12:04:45;;;;;;;18.45;8.77;;;9.60;99.90;;;;;;5095391;28;20074;-69
2024/02/11 12:07:11;;;;;;;17.50;8.18;;;9.80;99.90;;;;;;5095398;28;20375;-70
2024/02/11 12:09:37;;;;;;;18.15;8.77;;;9.80;99.90;;;;;;5095595;28;20370;-69
2024/02/11 12:12:04;;;;;;;18.98;8.15;;;9.80;99.90;;;;;;5095150;28;20473;-69
2024/02/11 12:14:30;;;;;;;19.52;9.25;;;9.80;99.90;;;;;;5095092;28;20032;-69
2024/02/11 12:16:56;;;;;;;19.42;8.48;;;9.90;99.90;;;;;;5095335;28;20028;-69
2024/02/11 12:19:23;;;;;;;17.55;7.75;;;9.90;99.90;;;;;;5095155;28;20052;-69
2024/02/11 12:21:50;;;;;;;13.52;7.93;;;9.80;99.90;;;;;;5095070;28;20147;-69
2024/02/11 12:24:15;;;;;;;13.27;6.72;;;9.90;99.90;;;;;;5095028;28;20036;-69
2024/02/11 12:26:41;;;;;;;16.65;7.00;;;9.90;99.90;;;;;;5095195;28;20043;-70
2024/02/11 12:29:07;;;;;;;17.77;7.70;;;9.90;99.90;;;;;;5095018;28;20024;-70
2024/02/11 12:31:33;;;;;;;19.25;6.70;;;10.00;99.90;;;;;;5094921;28;20081;-69
2024/02/11 12:34:00;;;;;;;12.32;6.72;;;10.10;99.90;;;;;;5093781;28;20490;-69
2024/02/11 12:36:26;;;;;;;14.93;6.57;;;10.10;99.90;;;;;;5093736;28;20024;-69
2024/02/11 12:38:54;;;;;;;19.52;7.50;;;10.10;99.90;;;;;;5094727;28;20122;-70
2024/02/11 12:41:24;;;;;;;17.50;7.00;;;10.20;99.90;;;;;;5093538;28;20027;-69